Terminal Aerodrome Forecast
Issued by NWS North Platte, NE

Home | Current Version | Previous Version | Text Only | Print | Product List | Glossary On
Versions: 1 2 3 4 5 6 7 8 9 10 11 12 13 14 15 16 17 18 19
000
FTUS43 KLBF 060500
TAFLBF
TAF
KLBF 060530Z 0606/0706 26007KT P6SM SKC
     FM061000 VRB06KT P6SM SCT250
     FM061600 29012KT P6SM SKC
     FM062000 29010G19KT P6SM SKC
     FM070000 29006KT P6SM SKC=

USA.gov is the U.S. government's official web portal to all federal, state and local government web resources and services.